createdAt,value
2023-02-17T00:02:06.531Z,2.75
2023-02-17T00:06:59.617Z,2.79
2023-02-17T00:11:53.404Z,2.83
2023-02-17T00:16:46.955Z,2.89
2023-02-17T00:21:39.721Z,2.88
2023-02-17T00:26:32.481Z,2.89
2023-02-17T00:31:25.608Z,2.91
2023-02-17T00:36:20.733Z,2.93
2023-02-17T00:41:13.561Z,2.96
2023-02-17T00:46:07.405Z,3.01
2023-02-17T00:51:00.778Z,3.09
2023-02-17T00:55:53.598Z,3.04
2023-02-17T01:00:46.430Z,3.08
2023-02-17T01:05:47.971Z,3.06
2023-02-17T01:10:43.019Z,3.06
2023-02-17T01:15:47.766Z,3.05
2023-02-17T01:20:42.063Z,3.01
2023-02-17T01:25:43.299Z,2.97
2023-02-17T01:30:36.543Z,2.97
2023-02-17T01:35:29.370Z,2.98
2023-02-17T01:40:22.202Z,2.96
2023-02-17T01:45:20.961Z,2.99
2023-02-17T01:50:14.064Z,3.00
2023-02-17T01:55:12.247Z,2.99
2023-02-17T02:00:07.855Z,2.97
2023-02-17T02:05:05.862Z,2.97
2023-02-17T02:10:00.378Z,3.00
2023-02-17T02:14:56.663Z,2.98
2023-02-17T02:20:17.792Z,2.97
2023-02-17T02:25:38.030Z,2.96
2023-02-17T02:31:09.510Z,2.94
2023-02-17T02:36:30.791Z,2.94
2023-02-17T02:41:30.738Z,2.92
2023-02-17T02:46:23.871Z,2.92
2023-02-17T02:51:35.798Z,2.93
2023-02-17T02:57:05.754Z,2.94
2023-02-17T03:02:12.060Z,2.99
2023-02-17T03:07:12.604Z,2.99
2023-02-17T03:12:07.818Z,3.02
2023-02-17T03:17:00.806Z,3.07
2023-02-17T03:21:59.089Z,3.11
2023-02-17T03:26:52.018Z,3.13
2023-02-17T03:31:45.093Z,3.16
2023-02-17T03:36:38.053Z,3.18
2023-02-17T03:41:30.915Z,3.21
2023-02-17T03:46:23.715Z,3.22
2023-02-17T03:51:26.912Z,3.26
2023-02-17T03:56:20.630Z,3.27
2023-02-17T04:01:14.564Z,3.28
2023-02-17T04:06:08.675Z,3.32
2023-02-17T04:11:03.517Z,3.35
2023-02-17T04:15:56.700Z,3.36
2023-02-17T04:20:51.492Z,3.36
2023-02-17T04:25:45.412Z,3.29
2023-02-17T04:30:41.241Z,3.31
2023-02-17T04:35:34.126Z,3.36
2023-02-17T04:40:26.931Z,3.43
2023-02-17T04:45:19.867Z,3.46
2023-02-17T04:50:13.317Z,3.53
2023-02-17T04:55:07.620Z,3.59
2023-02-17T05:00:00.565Z,3.61
2023-02-17T05:04:54.052Z,3.65
2023-02-17T05:09:47.041Z,3.66
2023-02-17T05:14:40.722Z,3.59
2023-02-17T05:19:33.563Z,3.61
2023-02-17T05:24:26.343Z,3.72
2023-02-17T05:29:19.126Z,3.75
2023-02-17T05:34:11.975Z,3.72
2023-02-17T05:39:04.884Z,3.73
2023-02-17T05:43:57.688Z,3.72
2023-02-17T05:48:50.453Z,3.72
2023-02-17T05:53:43.271Z,3.76
2023-02-17T05:58:36.239Z,3.84
2023-02-17T06:03:29.132Z,3.83
2023-02-17T06:08:21.940Z,3.83
2023-02-17T06:13:14.743Z,3.85
2023-02-17T06:18:07.585Z,3.82
2023-02-17T06:23:00.372Z,3.85
2023-02-17T06:27:53.149Z,3.87
2023-02-17T06:32:46.102Z,3.89
2023-02-17T06:37:38.913Z,3.92
2023-02-17T06:42:31.703Z,3.91
2023-02-17T06:47:24.500Z,3.95
2023-02-17T06:52:17.270Z,4.07
2023-02-17T06:57:10.056Z,4.13
2023-02-17T07:02:03.008Z,4.16
2023-02-17T07:06:56.014Z,4.19
2023-02-17T07:11:51.285Z,4.32
2023-02-17T07:16:44.129Z,4.44
2023-02-17T07:21:36.957Z,4.47
2023-02-17T07:26:29.720Z,4.52
2023-02-17T07:31:22.610Z,4.64
2023-02-17T07:36:17.604Z,4.78
2023-02-17T07:41:13.334Z,4.89
2023-02-17T07:46:08.018Z,5.27
2023-02-17T07:51:09.031Z,5.47
2023-02-17T07:56:06.866Z,5.50
2023-02-17T08:01:05.955Z,5.59
2023-02-17T08:05:58.765Z,5.64
2023-02-17T08:11:09.220Z,5.65
2023-02-17T08:16:05.401Z,5.71
2023-02-17T08:20:58.559Z,5.82
2023-02-17T08:25:51.330Z,5.93
2023-02-17T08:30:44.205Z,6.13
2023-02-17T08:35:37.093Z,6.21
2023-02-17T08:40:30.290Z,6.30
2023-02-17T08:45:25.961Z,6.34
2023-02-17T08:50:20.329Z,6.32
2023-02-17T08:55:13.114Z,6.38
2023-02-17T09:00:08.672Z,6.59
2023-02-17T09:05:01.788Z,6.72
2023-02-17T09:09:57.212Z,6.80
2023-02-17T09:14:50.065Z,6.90
2023-02-17T09:19:42.907Z,7.00
2023-02-17T09:24:38.863Z,7.07
2023-02-17T09:29:32.940Z,7.09
2023-02-17T09:34:25.729Z,7.04
2023-02-17T09:39:18.757Z,6.97
2023-02-17T09:44:23.260Z,7.03
2023-02-17T09:49:23.075Z,7.02
2023-02-17T09:54:22.961Z,7.06
2023-02-17T09:59:31.098Z,7.12
2023-02-17T10:04:29.337Z,7.26
2023-02-17T10:09:33.919Z,7.40
2023-02-17T10:14:36.374Z,7.48
2023-02-17T10:19:37.791Z,7.53
2023-02-17T10:24:30.659Z,7.58
2023-02-17T10:29:45.006Z,7.50
2023-02-17T10:34:43.807Z,7.41
2023-02-17T10:39:50.295Z,7.36
2023-02-17T10:44:43.235Z,7.30
2023-02-17T10:49:41.058Z,7.17
2023-02-17T10:54:46.556Z,7.08
2023-02-17T10:59:42.726Z,7.01
2023-02-17T11:04:43.693Z,6.98
2023-02-17T11:09:37.829Z,6.97
2023-02-17T11:14:33.287Z,6.92
2023-02-17T11:19:29.587Z,6.96
2023-02-17T11:24:22.702Z,7.05
2023-02-17T11:29:23.354Z,7.07
2023-02-17T11:34:24.107Z,6.99
2023-02-17T11:39:20.900Z,6.96
2023-02-17T11:44:24.968Z,6.92
2023-02-17T11:49:39.125Z,6.87
2023-02-17T11:54:49.413Z,6.92
2023-02-17T11:59:54.071Z,6.94
2023-02-17T12:05:00.752Z,6.97
2023-02-17T12:10:34.983Z,6.94
2023-02-17T12:15:43.530Z,6.86
2023-02-17T12:21:17.953Z,6.91
2023-02-17T12:26:28.909Z,6.97
2023-02-17T12:31:59.270Z,7.03
2023-02-17T12:36:53.268Z,7.12
2023-02-17T12:42:23.908Z,7.13
2023-02-17T12:47:22.925Z,7.11
2023-02-17T12:52:25.230Z,7.06
2023-02-17T12:57:28.936Z,6.98
2023-02-17T13:02:24.417Z,7.00
2023-02-17T13:07:26.617Z,7.01
2023-02-17T13:12:25.511Z,7.01
2023-02-17T13:17:31.674Z,6.97
2023-02-17T13:22:24.521Z,6.93
2023-02-17T13:27:30.217Z,6.92
2023-02-17T13:32:31.175Z,6.94
2023-02-17T13:37:40.748Z,6.94
2023-02-17T13:42:39.964Z,6.97
2023-02-17T13:47:37.983Z,6.97
2023-02-17T13:52:32.607Z,6.97
2023-02-17T13:57:31.469Z,6.97
2023-02-17T14:02:35.700Z,6.99
2023-02-17T14:07:29.119Z,6.98
2023-02-17T14:12:26.074Z,6.98
2023-02-17T14:17:33.681Z,6.99
2023-02-17T14:22:32.883Z,6.97
2023-02-17T14:27:25.740Z,6.96
2023-02-17T14:32:37.622Z,6.94
2023-02-17T14:37:32.164Z,6.92
2023-02-17T14:42:25.012Z,6.95
2023-02-17T14:47:17.799Z,6.96
2023-02-17T14:52:23.412Z,6.96
2023-02-17T14:57:17.875Z,6.95
2023-02-17T15:02:17.364Z,6.95
2023-02-17T15:07:14.356Z,6.92
2023-02-17T15:12:16.613Z,6.90
2023-02-17T15:17:09.388Z,6.87
2023-02-17T15:22:03.711Z,6.86
2023-02-17T15:26:56.511Z,6.86
2023-02-17T15:31:50.951Z,6.87
2023-02-17T15:36:44.212Z,6.89
2023-02-17T15:41:36.977Z,6.90
2023-02-17T15:46:33.214Z,6.88
2023-02-17T15:51:26.060Z,6.88
2023-02-17T15:56:22.363Z,6.90
2023-02-17T16:01:25.794Z,6.93
2023-02-17T16:06:18.578Z,6.96
2023-02-17T16:11:14.603Z,6.99
2023-02-17T16:16:16.914Z,6.99
2023-02-17T16:21:12.746Z,6.99
2023-02-17T16:26:07.716Z,7.01
2023-02-17T16:31:00.632Z,7.05
2023-02-17T16:35:53.504Z,7.07
2023-02-17T16:40:53.376Z,7.09
2023-02-17T16:46:03.933Z,7.06
2023-02-17T16:50:57.196Z,7.04
2023-02-17T16:55:50.566Z,7.04
2023-02-17T17:00:43.428Z,7.02
2023-02-17T17:05:36.823Z,7.03
2023-02-17T17:10:33.349Z,7.03
2023-02-17T17:15:26.734Z,7.05
2023-02-17T17:20:24.182Z,7.07
2023-02-17T17:25:17.230Z,7.08
2023-02-17T17:30:19.720Z,7.08
2023-02-17T17:35:12.925Z,7.09
2023-02-17T17:40:07.570Z,7.10
2023-02-17T17:45:00.416Z,7.13
2023-02-17T17:49:53.291Z,7.16
2023-02-17T17:54:46.111Z,7.16
2023-02-17T17:59:38.905Z,7.15
2023-02-17T18:04:31.855Z,7.14
2023-02-17T18:09:32.109Z,7.14
2023-02-17T18:14:25.310Z,7.14
2023-02-17T18:19:20.651Z,7.16
2023-02-17T18:24:13.795Z,7.18
2023-02-17T18:29:06.670Z,7.19
2023-02-17T18:33:59.492Z,7.18
2023-02-17T18:38:52.391Z,7.19
2023-02-17T18:43:45.193Z,7.20
2023-02-17T18:48:37.992Z,7.21
2023-02-17T18:53:30.891Z,7.23
2023-02-17T18:58:23.674Z,7.25
2023-02-17T19:03:16.686Z,7.29
2023-02-17T19:08:09.502Z,7.32
2023-02-17T19:13:02.294Z,7.37
2023-02-17T19:17:58.932Z,7.41
2023-02-17T19:22:51.963Z,7.44
2023-02-17T19:27:44.835Z,7.48
2023-02-17T19:32:37.667Z,7.51
2023-02-17T19:37:30.456Z,7.54
2023-02-17T19:42:23.328Z,7.57
2023-02-17T19:47:16.129Z,7.61
2023-02-17T19:52:09.165Z,7.64
2023-02-17T19:57:02.370Z,7.71
2023-02-17T20:01:56.245Z,7.77
2023-02-17T20:06:49.204Z,7.83
2023-02-17T20:11:42.238Z,7.88
2023-02-17T20:16:35.246Z,7.93
2023-02-17T20:21:30.456Z,8.00
2023-02-17T20:26:30.274Z,8.09
2023-02-17T20:31:24.480Z,8.16
2023-02-17T20:36:18.337Z,8.24
2023-02-17T20:41:16.101Z,8.34
2023-02-17T20:46:09.146Z,8.44
2023-02-17T20:51:04.282Z,8.52
2023-02-17T20:55:57.064Z,8.59
2023-02-17T21:00:49.954Z,8.67
2023-02-17T21:05:42.823Z,8.75
2023-02-17T21:10:35.852Z,8.82
2023-02-17T21:15:29.102Z,8.86
2023-02-17T21:20:26.913Z,8.88
2023-02-17T21:25:19.797Z,8.88
2023-02-17T21:30:13.884Z,8.90
2023-02-17T21:35:07.366Z,8.94
2023-02-17T21:40:00.380Z,9.01
2023-02-17T21:44:53.149Z,9.05
2023-02-17T21:49:48.427Z,9.08
2023-02-17T21:54:41.206Z,9.08
2023-02-17T21:59:34.018Z,9.07
2023-02-17T22:04:28.287Z,9.05
2023-02-17T22:09:21.128Z,9.01
2023-02-17T22:14:17.125Z,8.98
2023-02-17T22:19:14.359Z,8.94
2023-02-17T22:24:07.425Z,8.89
2023-02-17T22:29:00.320Z,8.84
2023-02-17T22:33:53.158Z,8.76
2023-02-17T22:38:46.275Z,8.68
2023-02-17T22:43:41.096Z,8.55
2023-02-17T22:48:35.840Z,8.42
2023-02-17T22:53:32.368Z,8.32
2023-02-17T22:58:27.369Z,8.22
2023-02-17T23:03:20.240Z,8.16
2023-02-17T23:08:13.066Z,8.13
2023-02-17T23:13:05.841Z,8.13
2023-02-17T23:17:58.664Z,8.13
2023-02-17T23:22:52.348Z,8.08
2023-02-17T23:27:45.129Z,8.05
2023-02-17T23:32:37.970Z,8.05
2023-02-17T23:37:30.824Z,8.04
2023-02-17T23:42:23.661Z,7.96
2023-02-17T23:47:16.417Z,7.90
2023-02-17T23:52:09.623Z,7.83
2023-02-17T23:57:02.426Z,7.76
